New Prague, Minnesota
Current Conditions -  °F | °C
As of 10:21 AM on Thursday 29 Jan 2015 (Local Time) from KLVN Reporting Station
Overcast Overcast  
Wind Chill: 15°   Ceiling: 2300
Heat Index: 28°   Visibility: 10mi
Dew Point: 25°   Wind: 20mph
Humidity: 86%   Direction: 320°NW
Pressure: 30.2"   Gusts: 29mph
Location:  44.54°N, 93.58°W
Report Text: KLVN 291621Z AUTO 32017G25KT 10SM OVC023 M02/M04 A3020 RMK AO2
Loading
Personal Weather Stations






























Interactive Weather Map New forecast layout! Learn more

10-Day Weather Forecast

Advertisements
Track Severe Weather on mobile